sensor_id;sensor_type;location;lat;lon;timestamp;pressure;altitude;pressure_sealevel;temperature;humidity
12215;BME280;6170;42.206;24.142;2023-03-01T00:02:06;99565.91;;;6.52;100.00
12215;BME280;6170;42.206;24.142;2023-03-01T00:04:34;99592.28;;;6.63;100.00
12215;BME280;6170;42.206;24.142;2023-03-01T00:07:02;99567.72;;;6.52;100.00
12215;BME280;6170;42.206;24.142;2023-03-01T00:09:29;99590.59;;;6.62;100.00
12215;BME280;6170;42.206;24.142;2023-03-01T00:11:56;99591.88;;;6.50;100.00
12215;BME280;6170;42.206;24.142;2023-03-01T00:14:23;99573.38;;;6.23;100.00
12215;BME280;6170;42.206;24.142;2023-03-01T00:16:50;99599.25;;;6.39;100.00
12215;BME280;6170;42.206;24.142;2023-03-01T00:19:19;99593.72;;;6.32;100.00
12215;BME280;6170;42.206;24.142;2023-03-01T00:21:49;99597.00;;;6.26;100.00
12215;BME280;6170;42.206;24.142;2023-03-01T00:24:16;99642.19;;;6.61;100.00
12215;BME280;6170;42.206;24.142;2023-03-01T00:26:43;99586.22;;;6.27;100.00
12215;BME280;6170;42.206;24.142;2023-03-01T00:29:10;99591.69;;;6.26;100.00
12215;BME280;6170;42.206;24.142;2023-03-01T00:31:37;99582.94;;;6.16;100.00
12215;BME280;6170;42.206;24.142;2023-03-01T00:34:05;99636.31;;;6.32;100.00
12215;BME280;6170;42.206;24.142;2023-03-01T00:36:34;99579.69;;;6.22;100.00
12215;BME280;6170;42.206;24.142;2023-03-01T00:39:04;99562.84;;;5.96;100.00
12215;BME280;6170;42.206;24.142;2023-03-01T00:41:31;99577.34;;;6.19;100.00
12215;BME280;6170;42.206;24.142;2023-03-01T00:44:00;99628.44;;;6.48;100.00
12215;BME280;6170;42.206;24.142;2023-03-01T00:46:27;99576.03;;;6.23;100.00
12215;BME280;6170;42.206;24.142;2023-03-01T00:48:55;99624.84;;;6.57;100.00
12215;BME280;6170;42.206;24.142;2023-03-01T00:51:24;99573.34;;;5.97;100.00
12215;BME280;6170;42.206;24.142;2023-03-01T00:53:53;99543.69;;;5.74;100.00
12215;BME280;6170;42.206;24.142;2023-03-01T00:56:22;99570.44;;;6.08;100.00
12215;BME280;6170;42.206;24.142;2023-03-01T00:58:49;99564.97;;;6.10;100.00
12215;BME280;6170;42.206;24.142;2023-03-01T01:01:18;99564.19;;;6.17;100.00
12215;BME280;6170;42.206;24.142;2023-03-01T01:03:47;99559.59;;;6.27;100.00
12215;BME280;6170;42.206;24.142;2023-03-01T01:06:16;99610.69;;;6.57;100.00
12215;BME280;6170;42.206;24.142;2023-03-01T01:08:43;99558.59;;;6.28;100.00
12215;BME280;6170;42.206;24.142;2023-03-01T01:11:11;99554.41;;;6.26;100.00
12215;BME280;6170;42.206;24.142;2023-03-01T01:13:40;99548.34;;;6.16;100.00
12215;BME280;6170;42.206;24.142;2023-03-01T01:16:08;99590.59;;;6.37;100.00
12215;BME280;6170;42.206;24.142;2023-03-01T01:18:35;99546.72;;;6.15;100.00
12215;BME280;6170;42.206;24.142;2023-03-01T01:21:06;99599.25;;;6.64;100.00
12215;BME280;6170;42.206;24.142;2023-03-01T01:23:34;99548.59;;;6.22;100.00
12215;BME280;6170;42.206;24.142;2023-03-01T01:26:05;99543.22;;;6.40;100.00
12215;BME280;6170;42.206;24.142;2023-03-01T01:28:32;99545.34;;;6.37;100.00
12215;BME280;6170;42.206;24.142;2023-03-01T01:31:00;99536.00;;;6.32;100.00
12215;BME280;6170;42.206;24.142;2023-03-01T01:33:27;99547.38;;;6.43;100.00
12215;BME280;6170;42.206;24.142;2023-03-01T01:35:54;99546.19;;;6.37;100.00
12215;BME280;6170;42.206;24.142;2023-03-01T01:38:21;99598.16;;;6.75;100.00
12215;BME280;6170;42.206;24.142;2023-03-01T01:40:49;99539.75;;;6.48;100.00
12215;BME280;6170;42.206;24.142;2023-03-01T01:43:20;99545.22;;;6.46;100.00
12215;BME280;6170;42.206;24.142;2023-03-01T01:45:47;99532.97;;;6.53;100.00
12215;BME280;6170;42.206;24.142;2023-03-01T01:48:19;99583.41;;;6.55;100.00
12215;BME280;6170;42.206;24.142;2023-03-01T01:50:51;99591.31;;;6.47;100.00
12215;BME280;6170;42.206;24.142;2023-03-01T01:53:21;99532.28;;;6.00;100.00
12215;BME280;6170;42.206;24.142;2023-03-01T01:55:51;99539.06;;;6.20;100.00
12215;BME280;6170;42.206;24.142;2023-03-01T01:58:20;99581.13;;;6.42;100.00
12215;BME280;6170;42.206;24.142;2023-03-01T02:00:48;99528.19;;;6.05;100.00
12215;BME280;6170;42.206;24.142;2023-03-01T02:03:22;99529.47;;;6.01;100.00
12215;BME280;6170;42.206;24.142;2023-03-01T02:05:52;99524.63;;;6.22;100.00
12215;BME280;6170;42.206;24.142;2023-03-01T02:08:25;99578.38;;;6.52;100.00
12215;BME280;6170;42.206;24.142;2023-03-01T02:10:54;99527.28;;;6.22;100.00
12215;BME280;6170;42.206;24.142;2023-03-01T02:13:22;99522.44;;;6.18;100.00
12215;BME280;6170;42.206;24.142;2023-03-01T02:15:49;99530.28;;;6.19;100.00
12215;BME280;6170;42.206;24.142;2023-03-01T02:18:20;99521.28;;;6.20;100.00
12215;BME280;6170;42.206;24.142;2023-03-01T02:20:55;99539.25;;;6.18;100.00
12215;BME280;6170;42.206;24.142;2023-03-01T02:23:27;99515.16;;;5.84;100.00
12215;BME280;6170;42.206;24.142;2023-03-01T02:25:58;99570.06;;;6.29;100.00
12215;BME280;6170;42.206;24.142;2023-03-01T02:28:34;99573.78;;;6.36;100.00
12215;BME280;6170;42.206;24.142;2023-03-01T02:31:03;99522.84;;;6.05;100.00
12215;BME280;6170;42.206;24.142;2023-03-01T02:33:48;99566.84;;;6.17;100.00
12215;BME280;6170;42.206;24.142;2023-03-01T02:36:19;99508.09;;;5.93;100.00
12215;BME280;6170;42.206;24.142;2023-03-01T02:38:47;99463.19;;;5.47;100.00
12215;BME280;6170;42.206;24.142;2023-03-01T02:41:16;99510.47;;;5.78;100.00
12215;BME280;6170;42.206;24.142;2023-03-01T02:43:45;99450.50;;;5.40;100.00
12215;BME280;6170;42.206;24.142;2023-03-01T02:46:17;99501.88;;;5.67;100.00
12215;BME280;6170;42.206;24.142;2023-03-01T02:48:46;99544.88;;;5.98;100.00
12215;BME280;6170;42.206;24.142;2023-03-01T02:51:25;99555.25;;;6.01;100.00
12215;BME280;6170;42.206;24.142;2023-03-01T02:54:04;99498.88;;;5.62;100.00
12215;BME280;6170;42.206;24.142;2023-03-01T02:56:34;99513.97;;;5.79;100.00
12215;BME280;6170;42.206;24.142;2023-03-01T02:59:02;99512.16;;;5.79;100.00
12215;BME280;6170;42.206;24.142;2023-03-01T03:01:30;99558.28;;;6.06;100.00
12215;BME280;6170;42.206;24.142;2023-03-01T03:04:03;99508.75;;;5.69;100.00
12215;BME280;6170;42.206;24.142;2023-03-01T03:06:30;99502.59;;;5.86;100.00
12215;BME280;6170;42.206;24.142;2023-03-01T03:08:57;99507.66;;;5.98;100.00
12215;BME280;6170;42.206;24.142;2023-03-01T03:11:25;99515.16;;;5.84;100.00
12215;BME280;6170;42.206;24.142;2023-03-01T03:13:52;99559.28;;;6.30;100.00
12215;BME280;6170;42.206;24.142;2023-03-01T03:16:21;99517.72;;;6.12;100.00
12215;BME280;6170;42.206;24.142;2023-03-01T03:18:48;99567.34;;;6.47;100.00
12215;BME280;6170;42.206;24.142;2023-03-01T03:21:15;99525.97;;;6.01;100.00
12215;BME280;6170;42.206;24.142;2023-03-01T03:23:43;99544.28;;;6.04;100.00
12215;BME280;6170;42.206;24.142;2023-03-01T03:26:10;99512.31;;;5.96;100.00
12215;BME280;6170;42.206;24.142;2023-03-01T03:28:40;99508.75;;;5.87;100.00
12215;BME280;6170;42.206;24.142;2023-03-01T03:31:08;99559.13;;;6.06;100.00
12215;BME280;6170;42.206;24.142;2023-03-01T03:33:36;99512.50;;;5.84;100.00
12215;BME280;6170;42.206;24.142;2023-03-01T03:36:04;99508.59;;;5.71;100.00
12215;BME280;6170;42.206;24.142;2023-03-01T03:38:31;99547.09;;;6.02;100.00
12215;BME280;6170;42.206;24.142;2023-03-01T03:41:03;99513.28;;;5.77;100.00
12215;BME280;6170;42.206;24.142;2023-03-01T03:43:32;99512.44;;;5.76;100.00
12215;BME280;6170;42.206;24.142;2023-03-01T03:45:59;99498.03;;;5.79;100.00
12215;BME280;6170;42.206;24.142;2023-03-01T03:48:27;99510.03;;;6.01;100.00
12215;BME280;6170;42.206;24.142;2023-03-01T03:50:56;99509.97;;;5.75;100.00
12215;BME280;6170;42.206;24.142;2023-03-01T03:53:27;99520.13;;;5.79;100.00
12215;BME280;6170;42.206;24.142;2023-03-01T03:55:55;99517.47;;;5.79;100.00
12215;BME280;6170;42.206;24.142;2023-03-01T03:58:24;99562.59;;;6.07;100.00
12215;BME280;6170;42.206;24.142;2023-03-01T04:00:54;99511.25;;;5.71;100.00
12215;BME280;6170;42.206;24.142;2023-03-01T04:03:23;99572.31;;;6.16;100.00
12215;BME280;6170;42.206;24.142;2023-03-01T04:05:51;99530.59;;;5.99;100.00
12215;BME280;6170;42.206;24.142;2023-03-01T04:08:21;99506.59;;;5.73;100.00
12215;BME280;6170;42.206;24.142;2023-03-01T04:10:49;99504.41;;;5.68;100.00
12215;BME280;6170;42.206;24.142;2023-03-01T04:13:18;99580.84;;;6.19;100.00
12215;BME280;6170;42.206;24.142;2023-03-01T04:15:46;99524.56;;;5.89;100.00
12215;BME280;6170;42.206;24.142;2023-03-01T04:18:15;99529.94;;;5.97;100.00
12215;BME280;6170;42.206;24.142;2023-03-01T04:20:43;99505.53;;;5.83;100.00
12215;BME280;6170;42.206;24.142;2023-03-01T04:23:12;99520.13;;;5.97;100.00
12215;BME280;6170;42.206;24.142;2023-03-01T04:25:45;99574.25;;;6.31;100.00
12215;BME280;6170;42.206;24.142;2023-03-01T04:28:15;99526.19;;;6.07;100.00
12215;BME280;6170;42.206;24.142;2023-03-01T04:30:42;99524.63;;;5.97;100.00
12215;BME280;6170;42.206;24.142;2023-03-01T04:33:10;99526.78;;;6.19;100.00
12215;BME280;6170;42.206;24.142;2023-03-01T04:35:37;99532.84;;;6.11;100.00
12215;BME280;6170;42.206;24.142;2023-03-01T04:38:05;99534.53;;;6.12;100.00
12215;BME280;6170;42.206;24.142;2023-03-01T04:40:33;99527.06;;;5.90;100.00
12215;BME280;6170;42.206;24.142;2023-03-01T04:43:03;99579.41;;;6.33;100.00
12215;BME280;6170;42.206;24.142;2023-03-01T04:45:32;99530.28;;;6.19;100.00
12215;BME280;6170;42.206;24.142;2023-03-01T04:48:00;99525.72;;;6.12;100.00
12215;BME280;6170;42.206;24.142;2023-03-01T04:50:27;99523.41;;;5.91;100.00
12215;BME280;6170;42.206;24.142;2023-03-01T04:52:54;99572.22;;;6.25;100.00
12215;BME280;6170;42.206;24.142;2023-03-01T04:55:24;99564.63;;;6.13;100.00
12215;BME280;6170;42.206;24.142;2023-03-01T04:57:52;99514.91;;;5.88;100.00
12215;BME280;6170;42.206;24.142;2023-03-01T05:00:22;99567.16;;;6.14;100.00
12215;BME280;6170;42.206;24.142;2023-03-01T05:02:50;99520.41;;;5.76;100.00
12215;BME280;6170;42.206;24.142;2023-03-01T05:05:22;99544.28;;;5.86;100.00
12215;BME280;6170;42.206;24.142;2023-03-01T05:07:55;99517.09;;;5.74;100.00
12215;BME280;6170;42.206;24.142;2023-03-01T05:10:23;99523.47;;;5.81;100.00
12215;BME280;6170;42.206;24.142;2023-03-01T05:12:50;99525.09;;;5.92;100.00
12215;BME280;6170;42.206;24.142;2023-03-01T05:15:19;99523.31;;;5.83;100.00
12215;BME280;6170;42.206;24.142;2023-03-01T05:17:51;99532.53;;;5.89;100.00
12215;BME280;6170;42.206;24.142;2023-03-01T05:20:18;99524.44;;;5.98;100.00
12215;BME280;6170;42.206;24.142;2023-03-01T05:22:48;99534.56;;;5.95;100.00
12215;BME280;6170;42.206;24.142;2023-03-01T05:25:15;99533.22;;;5.91;100.00
12215;BME280;6170;42.206;24.142;2023-03-01T05:27:42;99536.63;;;6.01;100.00
12215;BME280;6170;42.206;24.142;2023-03-01T05:30:10;99581.41;;;6.31;100.00
12215;BME280;6170;42.206;24.142;2023-03-01T05:32:42;99539.28;;;6.01;100.00
12215;BME280;6170;42.206;24.142;2023-03-01T05:35:11;99520.59;;;5.75;100.00
12215;BME280;6170;42.206;24.142;2023-03-01T05:37:44;99583.78;;;6.16;100.00
12215;BME280;6170;42.206;24.142;2023-03-01T05:40:14;99541.19;;;5.91;100.00
12215;BME280;6170;42.206;24.142;2023-03-01T05:42:43;99547.88;;;5.95;100.00
12215;BME280;6170;42.206;24.142;2023-03-01T05:45:11;99599.53;;;6.10;100.00
12215;BME280;6170;42.206;24.142;2023-03-01T05:47:39;99545.81;;;5.71;100.00
12215;BME280;6170;42.206;24.142;2023-03-01T05:50:12;99596.72;;;6.11;100.00
12215;BME280;6170;42.206;24.142;2023-03-01T05:52:43;99548.31;;;5.90;100.00
12215;BME280;6170;42.206;24.142;2023-03-01T05:55:10;99561.03;;;5.96;100.00
12215;BME280;6170;42.206;24.142;2023-03-01T05:57:37;99592.19;;;6.29;100.00
12215;BME280;6170;42.206;24.142;2023-03-01T06:00:05;99600.56;;;6.35;100.00
12215;BME280;6170;42.206;24.142;2023-03-01T06:02:32;99554.63;;;5.89;100.00
12215;BME280;6170;42.206;24.142;2023-03-01T06:04:59;99607.06;;;6.14;100.00
12215;BME280;6170;42.206;24.142;2023-03-01T06:07:28;99570.03;;;5.85;100.00
12215;BME280;6170;42.206;24.142;2023-03-01T06:09:55;99552.81;;;5.90;100.00
12215;BME280;6170;42.206;24.142;2023-03-01T06:12:22;99608.63;;;6.25;100.00
12215;BME280;6170;42.206;24.142;2023-03-01T06:14:49;99563.31;;;5.91;100.00
12215;BME280;6170;42.206;24.142;2023-03-01T06:17:15;99554.06;;;5.85;100.00
12215;BME280;6170;42.206;24.142;2023-03-01T06:19:42;99567.38;;;5.85;100.00
12215;BME280;6170;42.206;24.142;2023-03-01T06:22:09;99539.75;;;5.61;100.00
12215;BME280;6170;42.206;24.142;2023-03-01T06:24:38;99566.09;;;5.90;100.00
12215;BME280;6170;42.206;24.142;2023-03-01T06:27:05;99568.69;;;5.99;100.00
12215;BME280;6170;42.206;24.142;2023-03-01T06:29:32;99571.34;;;5.99;100.00
12215;BME280;6170;42.206;24.142;2023-03-01T06:31:59;99568.91;;;6.06;100.00
12215;BME280;6170;42.206;24.142;2023-03-01T06:34:26;99580.16;;;6.00;100.00
12215;BME280;6170;42.206;24.142;2023-03-01T06:36:53;99568.53;;;6.01;100.00
12215;BME280;6170;42.206;24.142;2023-03-01T06:39:20;99578.03;;;6.03;100.00
12215;BME280;6170;42.206;24.142;2023-03-01T06:41:48;99578.09;;;6.11;100.00
12215;BME280;6170;42.206;24.142;2023-03-01T06:44:15;99617.69;;;6.32;100.00
12215;BME280;6170;42.206;24.142;2023-03-01T06:46:42;99587.38;;;6.07;100.00
12215;BME280;6170;42.206;24.142;2023-03-01T06:49:09;99574.91;;;6.08;100.00
12215;BME280;6170;42.206;24.142;2023-03-01T06:51:36;99582.66;;;6.19;100.00
12215;BME280;6170;42.206;24.142;2023-03-01T06:54:03;99581.50;;;6.21;100.00
12215;BME280;6170;42.206;24.142;2023-03-01T06:56:30;99576.19;;;6.21;100.00
12215;BME280;6170;42.206;24.142;2023-03-01T06:58:59;99582.66;;;6.19;100.00
12215;BME280;6170;42.206;24.142;2023-03-01T07:01:26;99584.69;;;6.25;100.00
12215;BME280;6170;42.206;24.142;2023-03-01T07:03:53;99584.63;;;6.43;100.00
12215;BME280;6170;42.206;24.142;2023-03-01T07:06:20;99553.81;;;6.06;100.00
12215;BME280;6170;42.206;24.142;2023-03-01T07:08:47;99621.81;;;6.52;100.00
12215;BME280;6170;42.206;24.142;2023-03-01T07:11:14;99578.00;;;6.21;100.00
12215;BME280;6170;42.206;24.142;2023-03-01T07:13:42;99574.13;;;6.15;100.00
12215;BME280;6170;42.206;24.142;2023-03-01T07:16:10;99622.28;;;6.48;100.00
12215;BME280;6170;42.206;24.142;2023-03-01T07:18:37;99582.84;;;6.25;100.00
12215;BME280;6170;42.206;24.142;2023-03-01T07:21:05;99582.66;;;6.19;100.00
12215;BME280;6170;42.206;24.142;2023-03-01T07:23:32;99577.34;;;6.19;100.00
12215;BME280;6170;42.206;24.142;2023-03-01T07:25:59;99586.97;;;6.20;100.00
12215;BME280;6170;42.206;24.142;2023-03-01T07:28:27;99583.63;;;6.18;100.00
12215;BME280;6170;42.206;24.142;2023-03-01T07:30:54;99577.38;;;6.27;100.00
12215;BME280;6170;42.206;24.142;2023-03-01T07:33:22;99583.25;;;6.13;100.00
12215;BME280;6170;42.206;24.142;2023-03-01T07:35:56;99582.94;;;6.16;100.00
12215;BME280;6170;42.206;24.142;2023-03-01T07:38:24;99577.91;;;6.30;100.00
12215;BME280;6170;42.206;24.142;2023-03-01T07:40:51;99577.91;;;6.30;100.00
12215;BME280;6170;42.206;24.142;2023-03-01T07:43:18;99577.44;;;6.35;100.00
12215;BME280;6170;42.206;24.142;2023-03-01T07:45:46;99578.63;;;6.15;100.00
12215;BME280;6170;42.206;24.142;2023-03-01T07:48:12;99568.00;;;6.15;100.00
12215;BME280;6170;42.206;24.142;2023-03-01T07:50:41;99571.69;;;6.48;100.00
12215;BME280;6170;42.206;24.142;2023-03-01T07:53:08;99630.13;;;6.49;100.00
12215;BME280;6170;42.206;24.142;2023-03-01T07:55:35;99576.75;;;6.33;100.00
12215;BME280;6170;42.206;24.142;2023-03-01T07:58:02;99566.00;;;6.43;100.00
12215;BME280;6170;42.206;24.142;2023-03-01T08:00:29;99570.28;;;6.36;100.00
12215;BME280;6170;42.206;24.142;2023-03-01T08:02:59;99609.19;;;6.54;100.00
12215;BME280;6170;42.206;24.142;2023-03-01T08:05:26;99598.69;;;6.53;100.00
12215;BME280;6170;42.206;24.142;2023-03-01T08:07:54;99553.72;;;6.42;100.00
12215;BME280;6170;42.206;24.142;2023-03-01T08:10:21;99581.78;;;6.36;100.00
12215;BME280;6170;42.206;24.142;2023-03-01T08:12:51;99553.38;;;6.19;100.00
12215;BME280;6170;42.206;24.142;2023-03-01T08:15:18;99604.53;;;6.56;100.00
12215;BME280;6170;42.206;24.142;2023-03-01T08:17:45;99596.06;;;6.61;100.00
12215;BME280;6170;42.206;24.142;2023-03-01T08:20:12;99551.66;;;6.36;100.00
12215;BME280;6170;42.206;24.142;2023-03-01T08:22:39;99559.41;;;6.29;100.00
12215;BME280;6170;42.206;24.142;2023-03-01T08:25:08;99554.69;;;6.15;100.00
12215;BME280;6170;42.206;24.142;2023-03-01T08:27:35;99552.50;;;6.10;100.00
12215;BME280;6170;42.206;24.142;2023-03-01T08:30:02;99564.00;;;6.37;100.00
12215;BME280;6170;42.206;24.142;2023-03-01T08:32:29;99563.72;;;6.48;100.00
12215;BME280;6170;42.206;24.142;2023-03-01T08:34:56;99555.63;;;6.57;100.00
12215;BME280;6170;42.206;24.142;2023-03-01T08:37:23;99597.25;;;6.92;100.00
12215;BME280;6170;42.206;24.142;2023-03-01T08:39:50;99554.53;;;6.68;100.00
12215;BME280;6170;42.206;24.142;2023-03-01T08:42:19;99595.97;;;7.04;100.00
12215;BME280;6170;42.206;24.142;2023-03-01T08:44:46;99601.16;;;7.14;100.00
12215;BME280;6170;42.206;24.142;2023-03-01T08:47:13;99595.22;;;6.86;100.00
12215;BME280;6170;42.206;24.142;2023-03-01T08:49:40;99546.47;;;6.60;100.00
12215;BME280;6170;42.206;24.142;2023-03-01T08:52:07;99545.50;;;6.69;100.00
12215;BME280;6170;42.206;24.142;2023-03-01T08:54:34;99604.84;;;6.79;100.00
12215;BME280;6170;42.206;24.142;2023-03-01T08:57:01;99560.91;;;6.83;100.00
12215;BME280;6170;42.206;24.142;2023-03-01T08:59:30;99551.50;;;6.63;100.00
12215;BME280;6170;42.206;24.142;2023-03-01T09:02:02;99556.72;;;6.72;100.00
12215;BME280;6170;42.206;24.142;2023-03-01T09:04:29;99561.97;;;6.64;100.00
12215;BME280;6170;42.206;24.142;2023-03-01T09:06:56;99556.03;;;6.70;100.00
12215;BME280;6170;42.206;24.142;2023-03-01T09:09:23;99555.69;;;6.73;100.00
12215;BME280;6170;42.206;24.142;2023-03-01T09:11:50;99605.63;;;7.05;100.00
12215;BME280;6170;42.206;24.142;2023-03-01T09:14:18;99563.72;;;6.82;100.00
12215;BME280;6170;42.206;24.142;2023-03-01T09:16:46;99551.41;;;6.81;100.00
12215;BME280;6170;42.206;24.142;2023-03-01T09:19:13;99557.13;;;6.94;100.00
12215;BME280;6170;42.206;24.142;2023-03-01T09:21:41;99549.06;;;6.77;100.00
12215;BME280;6170;42.206;24.142;2023-03-01T09:24:19;99558.66;;;6.62;100.00
12215;BME280;6170;42.206;24.142;2023-03-01T09:26:47;99553.34;;;6.70;100.00
12215;BME280;6170;42.206;24.142;2023-03-01T09:29:14;99553.03;;;6.73;100.00
12215;BME280;6170;42.206;24.142;2023-03-01T09:31:41;99547.91;;;6.80;100.00
12215;BME280;6170;42.206;24.142;2023-03-01T09:34:10;99552.66;;;7.02;100.00
12215;BME280;6170;42.206;24.142;2023-03-01T09:36:39;99547.94;;;6.88;100.00
12215;BME280;6170;42.206;24.142;2023-03-01T09:39:06;99599.44;;;7.39;100.00
12215;BME280;6170;42.206;24.142;2023-03-01T09:41:49;99577.66;;;7.51;100.00
12215;BME280;6170;42.206;24.142;2023-03-01T09:44:27;99540.00;;;7.04;100.00
12215;BME280;6170;42.206;24.142;2023-03-01T09:46:55;99539.16;;;7.04;100.00
12215;BME280;6170;42.206;24.142;2023-03-01T09:49:27;99546.91;;;7.23;100.00
12215;BME280;6170;42.206;24.142;2023-03-01T09:51:59;99540.31;;;6.93;100.00
12215;BME280;6170;42.206;24.142;2023-03-01T09:54:27;99533.53;;;7.07;100.00
12215;BME280;6170;42.206;24.142;2023-03-01T09:57:06;99572.47;;;7.66;100.00
12215;BME280;6170;42.206;24.142;2023-03-01T09:59:52;99574.06;;;7.35;100.00
12215;BME280;6170;42.206;24.142;2023-03-01T10:02:26;99529.41;;;7.12;100.00
12215;BME280;6170;42.206;24.142;2023-03-01T10:05:09;99525.53;;;7.07;100.00
12215;BME280;6170;42.206;24.142;2023-03-01T10:07:45;99570.53;;;7.18;100.00
12215;BME280;6170;42.206;24.142;2023-03-01T10:10:25;99532.06;;;7.12;100.00
12215;BME280;6170;42.206;24.142;2023-03-01T10:12:55;99513.16;;;6.90;100.00
12215;BME280;6170;42.206;24.142;2023-03-01T10:15:30;99521.66;;;6.93;100.00
12215;BME280;6170;42.206;24.142;2023-03-01T10:18:02;99523.81;;;6.90;100.00
12215;BME280;6170;42.206;24.142;2023-03-01T10:20:43;99526.53;;;7.06;100.00
12215;BME280;6170;42.206;24.142;2023-03-01T10:23:13;99528.03;;;7.08;100.00
12215;BME280;6170;42.206;24.142;2023-03-01T10:25:57;99509.19;;;7.02;100.00
12215;BME280;6170;42.206;24.142;2023-03-01T10:28:30;99507.41;;;7.10;100.00
12215;BME280;6170;42.206;24.142;2023-03-01T10:30:58;99551.09;;;7.34;100.00
12215;BME280;6170;42.206;24.142;2023-03-01T10:33:28;99507.53;;;7.09;100.00
12215;BME280;6170;42.206;24.142;2023-03-01T10:35:57;99506.53;;;6.94;100.00
12215;BME280;6170;42.206;24.142;2023-03-01T10:38:24;99556.44;;;7.26;100.00
12215;BME280;6170;42.206;24.142;2023-03-01T10:40:54;99509.47;;;6.91;100.00
12215;BME280;6170;42.206;24.142;2023-03-01T10:43:23;99483.38;;;6.94;100.00
12215;BME280;6170;42.206;24.142;2023-03-01T10:45:51;99488.72;;;7.02;100.00
12215;BME280;6170;42.206;24.142;2023-03-01T10:48:19;99492.88;;;7.05;100.00
12215;BME280;6170;42.206;24.142;2023-03-01T10:50:51;99534.97;;;7.59;100.00
12215;BME280;6170;42.206;24.142;2023-03-01T10:53:34;99537.94;;;7.48;100.00
12215;BME280;6170;42.206;24.142;2023-03-01T10:56:04;99484.25;;;7.11;100.00
12215;BME280;6170;42.206;24.142;2023-03-01T10:58:32;99490.06;;;7.06;100.00
12215;BME280;6170;42.206;24.142;2023-03-01T11:01:02;99476.41;;;7.09;100.00
12215;BME280;6170;42.206;24.142;2023-03-01T11:03:31;99472.91;;;7.09;100.00
12215;BME280;6170;42.206;24.142;2023-03-01T11:06:04;99507.13;;;7.70;100.00
12215;BME280;6170;42.206;24.142;2023-03-01T11:08:36;99450.94;;;7.31;100.00
12215;BME280;6170;42.206;24.142;2023-03-01T11:11:15;99451.97;;;7.46;100.00
12215;BME280;6170;42.206;24.142;2023-03-01T11:13:55;99452.47;;;7.26;100.00
12215;BME280;6170;42.206;24.142;2023-03-01T11:16:25;99444.44;;;7.17;100.00
12215;BME280;6170;42.206;24.142;2023-03-01T11:19:04;99455.72;;;6.95;100.00
12215;BME280;6170;42.206;24.142;2023-03-01T11:21:33;99436.91;;;7.05;100.00
12215;BME280;6170;42.206;24.142;2023-03-01T11:24:05;99431.94;;;7.18;100.00
12215;BME280;6170;42.206;24.142;2023-03-01T11:26:36;99435.63;;;7.49;100.00
12215;BME280;6170;42.206;24.142;2023-03-01T11:29:11;99434.44;;;7.11;100.00
12215;BME280;6170;42.206;24.142;2023-03-01T11:31:40;99476.31;;;7.43;100.00
12215;BME280;6170;42.206;24.142;2023-03-01T11:34:11;99419.59;;;7.09;100.00
12215;BME280;6170;42.206;24.142;2023-03-01T11:36:42;99417.28;;;6.98;100.00
12215;BME280;6170;42.206;24.142;2023-03-01T11:39:18;99418.31;;;7.21;100.00
12215;BME280;6170;42.206;24.142;2023-03-01T11:41:56;99418.63;;;7.26;100.00
12215;BME280;6170;42.206;24.142;2023-03-01T11:44:28;99428.63;;;7.32;100.00
12215;BME280;6170;42.206;24.142;2023-03-01T11:47:15;99428.31;;;7.51;100.00
12215;BME280;6170;42.206;24.142;2023-03-01T11:50:17;99420.31;;;7.59;100.00
12215;BME280;6170;42.206;24.142;2023-03-01T11:52:54;99457.81;;;7.74;100.00
12215;BME280;6170;42.206;24.142;2023-03-01T11:55:48;99430.63;;;7.54;100.00
12215;BME280;6170;42.206;24.142;2023-03-01T11:58:36;99392.13;;;7.57;100.00
12215;BME280;6170;42.206;24.142;2023-03-01T12:01:16;99426.78;;;7.57;100.00
12215;BME280;6170;42.206;24.142;2023-03-01T12:06:54;99451.28;;;7.85;100.00
12215;BME280;6170;42.206;24.142;2023-03-01T12:12:38;99406.97;;;7.27;100.00
12215;BME280;6170;42.206;24.142;2023-03-01T12:15:33;99381.16;;;7.19;100.00
12215;BME280;6170;42.206;24.142;2023-03-01T12:18:14;99410.47;;;7.36;100.00
12215;BME280;6170;42.206;24.142;2023-03-01T12:20:53;99404.47;;;7.34;100.00
12215;BME280;6170;42.206;24.142;2023-03-01T12:23:55;99407.78;;;7.44;100.00
12215;BME280;6170;42.206;24.142;2023-03-01T12:26:31;99400.97;;;7.49;100.00
12215;BME280;6170;42.206;24.142;2023-03-01T12:32:16;99410.13;;;7.71;100.00
12215;BME280;6170;42.206;24.142;2023-03-01T12:35:10;99393.16;;;7.48;100.00
12215;BME280;6170;42.206;24.142;2023-03-01T12:37:54;99398.28;;;7.57;100.00
12215;BME280;6170;42.206;24.142;2023-03-01T12:43:24;99406.59;;;7.71;100.00
12215;BME280;6170;42.206;24.142;2023-03-01T12:46:05;99396.63;;;7.48;100.00
12215;BME280;6170;42.206;24.142;2023-03-01T12:48:43;99376.66;;;7.36;100.00
12215;BME280;6170;42.206;24.142;2023-03-01T12:51:18;99388.50;;;7.34;100.00
12215;BME280;6170;42.206;24.142;2023-03-01T12:53:48;99393.31;;;7.46;100.00
12215;BME280;6170;42.206;24.142;2023-03-01T12:56:18;99386.66;;;7.50;100.00
12215;BME280;6170;42.206;24.142;2023-03-01T12:58:54;99383.13;;;7.50;100.00
12215;BME280;6170;42.206;24.142;2023-03-01T13:01:33;99377.13;;;7.64;100.00
12215;BME280;6170;42.206;24.142;2023-03-01T13:04:12;99376.13;;;7.57;100.00
12215;BME280;6170;42.206;24.142;2023-03-01T13:06:50;99383.63;;;7.70;100.00
12215;BME280;6170;42.206;24.142;2023-03-01T13:09:27;99386.09;;;7.71;100.00
12215;BME280;6170;42.206;24.142;2023-03-01T13:11:57;99385.63;;;7.59;100.00
12215;BME280;6170;42.206;24.142;2023-03-01T13:14:45;99371.13;;;7.54;100.00
12215;BME280;6170;42.206;24.142;2023-03-01T13:17:39;99376.28;;;7.72;100.00
12215;BME280;6170;42.206;24.142;2023-03-01T13:20:17;99378.13;;;7.55;100.00
12215;BME280;6170;42.206;24.142;2023-03-01T13:22:45;99375.28;;;7.73;100.00
12215;BME280;6170;42.206;24.142;2023-03-01T13:25:15;99375.94;;;7.83;99.81
12215;BME280;6170;42.206;24.142;2023-03-01T13:27:45;99389.06;;;7.92;99.51
12215;BME280;6170;42.206;24.142;2023-03-01T13:30:39;99378.91;;;7.88;100.00